Terminal Aerodrome Forecast
Issued by NWS

Home | Current Version | Previous Version | Text Only | Print | Product List | Glossary On
Versions: 1 2 3 4 5 6 7 8 9 10 11 12 13 14
784
FTUS42 TJSJ 222340
TAFIST
TAF
TIST 222340Z 2300/2324 08012KT P6SM VCSH FEW025 FEW040
     FM231300 11014G24KT P6SM VCSH SCT025 SCT035
     FM232300 07016KT P6SM FEW025 SCT035=

USA.gov is the U.S. government's official web portal to all federal, state and local government web resources and services.